createdAt,value
2019-01-28T00:00:31.294Z,0.00
2019-01-28T00:01:31.331Z,0.00
2019-01-28T00:02:31.367Z,0.00
2019-01-28T00:03:31.456Z,0.00
2019-01-28T00:04:31.438Z,0.00
2019-01-28T00:05:31.480Z,0.00
2019-01-28T00:06:31.515Z,0.00
2019-01-28T00:07:31.551Z,0.00
2019-01-28T00:08:31.595Z,0.00
2019-01-28T00:09:31.624Z,0.00
2019-01-28T00:10:31.660Z,0.00
2019-01-28T00:11:31.699Z,0.00
2019-01-28T00:12:31.732Z,0.00
2019-01-28T00:13:31.789Z,0.00
2019-01-28T00:14:31.809Z,0.00
2019-01-28T00:15:31.843Z,0.00
2019-01-28T00:16:31.877Z,0.00
2019-01-28T00:17:31.921Z,0.00
2019-01-28T00:18:31.953Z,0.00
2019-01-28T00:19:31.986Z,0.00
2019-01-28T00:20:32.023Z,0.00
2019-01-28T00:21:32.060Z,0.00
2019-01-28T00:22:32.095Z,0.00
2019-01-28T00:23:32.138Z,0.00
2019-01-28T00:24:32.168Z,0.00
2019-01-28T00:25:32.204Z,0.00
2019-01-28T00:26:32.241Z,0.00
2019-01-28T00:27:32.277Z,0.00
2019-01-28T00:28:32.314Z,0.00
2019-01-28T00:29:32.351Z,0.00
2019-01-28T00:30:32.387Z,0.00
2019-01-28T00:31:32.423Z,0.00
2019-01-28T00:32:32.473Z,0.00
2019-01-28T00:33:32.505Z,0.00
2019-01-28T00:34:32.583Z,0.00
2019-01-28T00:35:32.568Z,0.00
2019-01-28T00:36:32.606Z,0.00
2019-01-28T00:37:32.640Z,0.00
2019-01-28T00:38:32.677Z,0.00
2019-01-28T00:39:32.715Z,0.00
2019-01-28T00:40:32.749Z,0.00
2019-01-28T00:41:32.790Z,0.00
2019-01-28T00:42:32.823Z,0.00
2019-01-28T00:43:32.858Z,0.00
2019-01-28T00:44:32.898Z,0.00
2019-01-28T00:45:32.947Z,0.00
2019-01-28T00:46:32.964Z,0.00
2019-01-28T00:47:33.003Z,0.00
2019-01-28T00:48:33.041Z,0.00
2019-01-28T00:49:33.084Z,0.00
2019-01-28T00:50:33.112Z,0.00
2019-01-28T00:51:33.149Z,0.00
2019-01-28T00:52:33.188Z,0.00
2019-01-28T00:53:33.221Z,0.00
2019-01-28T00:54:33.271Z,0.00
2019-01-28T00:55:33.293Z,0.00
2019-01-28T00:56:33.329Z,0.00
2019-01-28T00:57:33.368Z,0.00
2019-01-28T00:58:33.402Z,0.00
2019-01-28T00:59:33.439Z,0.00
2019-01-28T01:00:33.476Z,0.00
2019-01-28T01:01:33.520Z,0.00
2019-01-28T01:02:33.550Z,0.00
2019-01-28T01:03:33.586Z,0.00
2019-01-28T01:04:33.624Z,0.00
2019-01-28T01:05:33.658Z,0.00
2019-01-28T01:06:33.712Z,0.00
2019-01-28T01:07:33.728Z,0.00
2019-01-28T01:08:33.773Z,0.00
2019-01-28T01:09:33.806Z,0.00
2019-01-28T01:10:33.839Z,0.00
2019-01-28T01:11:33.879Z,0.00
2019-01-28T01:12:33.914Z,0.00
2019-01-28T01:13:33.962Z,0.00
2019-01-28T01:14:33.987Z,0.00
2019-01-28T01:15:34.023Z,0.00
2019-01-28T01:16:34.058Z,0.00
2019-01-28T01:17:34.105Z,0.00
2019-01-28T01:18:34.130Z,0.00
2019-01-28T01:19:34.177Z,0.00
2019-01-28T01:20:34.202Z,0.00
2019-01-28T01:21:34.246Z,0.00
2019-01-28T01:22:34.275Z,0.00
2019-01-28T01:23:34.310Z,0.00
2019-01-28T01:24:34.359Z,0.00
2019-01-28T01:25:34.385Z,0.00
2019-01-28T01:26:34.419Z,0.00
2019-01-28T01:27:34.458Z,0.00
2019-01-28T01:28:34.500Z,0.00
2019-01-28T01:29:34.532Z,0.00
2019-01-28T01:30:34.564Z,0.00
2019-01-28T01:31:34.608Z,0.00
2019-01-28T01:32:34.642Z,0.00
2019-01-28T01:33:34.675Z,0.00
2019-01-28T01:34:34.710Z,0.00
2019-01-28T01:35:34.755Z,0.00
2019-01-28T01:36:34.786Z,0.00
2019-01-28T01:37:34.835Z,0.00
2019-01-28T01:38:34.855Z,0.00
2019-01-28T01:39:34.897Z,0.00
2019-01-28T01:40:34.929Z,0.00
2019-01-28T01:41:34.966Z,0.00
2019-01-28T01:42:35.001Z,0.00
2019-01-28T01:43:35.039Z,0.00
2019-01-28T01:44:35.074Z,0.00
2019-01-28T01:45:35.110Z,0.00
2019-01-28T01:46:35.146Z,0.00
2019-01-28T01:47:35.182Z,0.00
2019-01-28T01:48:35.219Z,0.00
2019-01-28T01:49:35.258Z,0.00
2019-01-28T01:50:35.294Z,0.00
2019-01-28T01:51:35.342Z,0.00
2019-01-28T01:52:35.362Z,0.00
2019-01-28T01:53:35.408Z,0.00
2019-01-28T01:54:35.436Z,0.00
2019-01-28T01:55:35.472Z,0.00
2019-01-28T01:56:35.506Z,0.00
2019-01-28T01:57:35.594Z,0.00
2019-01-28T01:58:35.580Z,0.00
2019-01-28T01:59:35.615Z,0.00
2019-01-28T02:00:35.665Z,0.00
2019-01-28T02:01:35.687Z,0.00
2019-01-28T02:02:35.722Z,0.00
2019-01-28T02:03:35.762Z,0.00
2019-01-28T02:04:35.796Z,0.00
2019-01-28T02:05:35.832Z,0.00
2019-01-28T02:06:35.870Z,0.00
2019-01-28T02:07:35.904Z,0.00
2019-01-28T02:08:35.941Z,0.00
2019-01-28T02:09:35.978Z,0.00
2019-01-28T02:10:36.021Z,0.00
2019-01-28T02:11:36.049Z,0.00
2019-01-28T02:12:36.086Z,0.00
2019-01-28T02:13:36.120Z,0.00
2019-01-28T02:14:36.155Z,0.00
2019-01-28T02:15:36.199Z,0.00
2019-01-28T02:16:36.230Z,0.00
2019-01-28T02:17:36.267Z,0.00
2019-01-28T02:18:36.302Z,0.00
2019-01-28T02:19:36.338Z,0.00
2019-01-28T02:20:36.387Z,0.00
2019-01-28T02:21:36.412Z,0.00
2019-01-28T02:22:36.447Z,0.00
2019-01-28T02:23:36.484Z,0.00
2019-01-28T02:24:36.520Z,0.00
2019-01-28T02:25:36.558Z,0.00
2019-01-28T02:26:36.590Z,0.00
2019-01-28T02:27:36.629Z,0.00
2019-01-28T02:28:36.670Z,0.00
2019-01-28T02:29:36.701Z,0.00
2019-01-28T02:30:36.736Z,0.00
2019-01-28T02:31:36.772Z,0.00
2019-01-28T02:32:36.809Z,0.00
2019-01-28T02:33:36.855Z,0.00
2019-01-28T02:34:36.879Z,0.00
2019-01-28T02:35:36.919Z,0.00
2019-01-28T02:36:36.956Z,0.00
2019-01-28T02:37:36.991Z,0.00
2019-01-28T02:38:37.026Z,0.00
2019-01-28T02:39:37.066Z,0.00
2019-01-28T02:40:37.100Z,0.00
2019-01-28T02:41:37.136Z,0.00
2019-01-28T02:42:37.171Z,0.00
2019-01-28T02:43:37.209Z,0.00
2019-01-28T02:44:37.245Z,0.00
2019-01-28T02:45:37.283Z,0.00
2019-01-28T02:46:37.317Z,0.00
2019-01-28T02:47:37.354Z,0.00
2019-01-28T02:48:37.392Z,0.00
2019-01-28T02:49:37.430Z,0.00
2019-01-28T02:50:37.472Z,0.00
2019-01-28T02:51:37.503Z,0.00
2019-01-28T02:52:37.543Z,0.00
2019-01-28T02:53:37.575Z,0.00
2019-01-28T02:54:37.609Z,0.00
2019-01-28T02:55:37.656Z,0.00
2019-01-28T02:56:37.685Z,0.00
2019-01-28T02:57:37.720Z,0.00
2019-01-28T02:58:37.756Z,0.00
2019-01-28T02:59:37.791Z,0.00
2019-01-28T03:00:37.830Z,0.00
2019-01-28T03:01:37.874Z,0.00
2019-01-28T03:02:37.902Z,0.00
2019-01-28T03:03:37.937Z,0.00
2019-01-28T03:04:37.974Z,0.00
2019-01-28T03:05:38.011Z,0.00
2019-01-28T03:06:38.295Z,0.00
2019-01-28T03:07:38.083Z,0.00
2019-01-28T03:08:38.134Z,0.00
2019-01-28T03:09:38.155Z,0.00
2019-01-28T03:10:38.195Z,0.00
2019-01-28T03:11:38.433Z,0.00
2019-01-28T03:12:38.270Z,0.00
2019-01-28T03:13:38.301Z,0.00
2019-01-28T03:14:38.338Z,0.00
2019-01-28T03:15:38.375Z,0.00
2019-01-28T03:16:38.410Z,0.00
2019-01-28T03:17:38.457Z,0.00
2019-01-28T03:18:38.484Z,0.00
2019-01-28T03:19:38.535Z,0.00
2019-01-28T03:20:38.578Z,0.00
2019-01-28T03:21:38.592Z,0.00
2019-01-28T03:22:38.629Z,0.00
2019-01-28T03:23:38.667Z,0.00
2019-01-28T03:24:38.707Z,0.00
2019-01-28T03:25:38.740Z,0.00
2019-01-28T03:26:38.775Z,0.00
2019-01-28T03:27:40.361Z,0.00
2019-01-28T03:28:38.849Z,0.00
2019-01-28T03:29:38.888Z,0.00
2019-01-28T03:30:38.922Z,0.00
2019-01-28T03:31:38.959Z,0.00
2019-01-28T03:32:39.012Z,0.00
2019-01-28T03:33:39.031Z,0.00
2019-01-28T03:34:39.074Z,0.00
2019-01-28T03:35:39.103Z,0.00
2019-01-28T03:36:39.140Z,0.00
2019-01-28T03:37:39.186Z,0.00
2019-01-28T03:38:39.213Z,0.00
2019-01-28T03:39:39.250Z,0.00
2019-01-28T03:40:39.286Z,0.00
2019-01-28T03:41:39.323Z,0.00
2019-01-28T03:42:39.360Z,0.00
2019-01-28T03:43:39.397Z,0.00
2019-01-28T03:44:39.432Z,0.00
2019-01-28T03:45:39.473Z,0.00
2019-01-28T03:46:39.504Z,0.00
2019-01-28T03:47:39.541Z,0.00
2019-01-28T03:48:39.579Z,0.00
2019-01-28T03:49:39.615Z,0.00
2019-01-28T03:50:39.654Z,0.00
2019-01-28T03:51:39.688Z,0.00
2019-01-28T03:52:39.725Z,0.00
2019-01-28T03:53:39.765Z,0.00
2019-01-28T03:54:39.798Z,0.00
2019-01-28T03:55:39.845Z,0.00
2019-01-28T03:56:39.871Z,0.00
2019-01-28T03:57:39.912Z,0.00
2019-01-28T03:58:39.961Z,0.00
2019-01-28T03:59:39.979Z,0.00
2019-01-28T04:00:40.019Z,0.00
2019-01-28T04:01:40.054Z,0.00
2019-01-28T04:02:40.091Z,0.00
2019-01-28T04:03:40.127Z,0.00
2019-01-28T04:04:40.163Z,0.00
2019-01-28T04:05:40.198Z,0.00
2019-01-28T04:06:40.236Z,0.00
2019-01-28T04:07:40.274Z,0.00
2019-01-28T04:08:40.310Z,0.00
2019-01-28T04:09:40.345Z,0.00
2019-01-28T04:10:40.382Z,0.00
2019-01-28T04:11:40.418Z,0.00
2019-01-28T04:12:40.466Z,0.00
2019-01-28T04:13:40.490Z,0.00
2019-01-28T04:14:40.528Z,0.00
2019-01-28T04:15:40.564Z,0.00
2019-01-28T04:16:40.601Z,0.00
2019-01-28T04:17:40.639Z,0.00
2019-01-28T04:18:40.688Z,0.00
2019-01-28T04:19:40.710Z,0.00
2019-01-28T04:20:40.748Z,0.00
2019-01-28T04:21:40.785Z,0.00
2019-01-28T04:22:40.819Z,0.00
2019-01-28T04:23:40.856Z,0.00
2019-01-28T04:24:40.893Z,0.00
2019-01-28T04:25:40.938Z,0.00
2019-01-28T04:26:40.967Z,0.00
2019-01-28T04:27:41.016Z,0.00
2019-01-28T04:28:41.039Z,0.00
2019-01-28T04:29:41.077Z,0.00
2019-01-28T04:30:41.112Z,0.00
2019-01-28T04:31:41.151Z,0.00
2019-01-28T04:32:41.188Z,0.00
2019-01-28T04:33:41.225Z,0.00
2019-01-28T04:34:41.261Z,0.00
2019-01-28T04:35:41.297Z,0.00
2019-01-28T04:36:41.333Z,0.00
2019-01-28T04:37:41.370Z,0.00
2019-01-28T04:38:41.403Z,0.00
2019-01-28T04:39:41.442Z,0.00
2019-01-28T04:40:41.477Z,0.00
2019-01-28T04:41:41.513Z,0.00
2019-01-28T04:42:41.549Z,0.00
2019-01-28T04:43:41.587Z,0.00
2019-01-28T04:44:41.623Z,0.00
2019-01-28T04:45:41.661Z,0.00
2019-01-28T04:46:41.697Z,0.00
2019-01-28T04:47:41.737Z,0.00
2019-01-28T04:48:41.769Z,0.00
2019-01-28T04:49:41.809Z,0.00
2019-01-28T04:50:41.844Z,0.00
2019-01-28T04:51:41.879Z,0.00
2019-01-28T04:52:41.918Z,0.00
2019-01-28T04:53:41.952Z,0.00
2019-01-28T04:54:41.989Z,0.00
2019-01-28T04:55:42.025Z,0.00
2019-01-28T04:56:42.062Z,0.00
2019-01-28T04:57:42.101Z,0.00
2019-01-28T04:58:42.135Z,0.00
2019-01-28T04:59:42.172Z,0.00
2019-01-28T05:00:42.210Z,0.00
2019-01-28T05:01:42.247Z,0.00
2019-01-28T05:02:42.284Z,0.00
2019-01-28T05:03:42.319Z,0.00
2019-01-28T05:04:42.366Z,0.00
2019-01-28T05:05:42.395Z,0.00
2019-01-28T05:06:42.433Z,0.00
2019-01-28T05:07:42.465Z,0.00
2019-01-28T05:08:42.502Z,0.00
2019-01-28T05:09:42.539Z,0.00
2019-01-28T05:10:43.065Z,0.00
2019-01-28T05:11:42.621Z,0.00
2019-01-28T05:12:42.650Z,0.00
2019-01-28T05:13:42.685Z,0.00
2019-01-28T05:14:42.721Z,0.00
2019-01-28T05:15:42.757Z,0.00
2019-01-28T05:16:42.794Z,0.00
2019-01-28T05:17:42.831Z,0.00
2019-01-28T05:18:42.867Z,0.00
2019-01-28T05:19:42.903Z,0.00
2019-01-28T05:20:42.940Z,0.00
2019-01-28T05:21:42.985Z,0.00
2019-01-28T05:22:43.012Z,0.00
2019-01-28T05:23:43.050Z,0.00
2019-01-28T05:24:43.087Z,0.00
2019-01-28T05:25:43.124Z,0.00
2019-01-28T05:26:43.160Z,0.00
2019-01-28T05:27:43.197Z,0.00
2019-01-28T05:28:43.233Z,0.00
2019-01-28T05:29:43.270Z,0.00
2019-01-28T05:30:43.303Z,0.00
2019-01-28T05:31:43.340Z,0.00
2019-01-28T05:32:43.423Z,0.00
2019-01-28T05:33:43.418Z,0.00
2019-01-28T05:34:43.452Z,0.00
2019-01-28T05:35:43.495Z,0.00
2019-01-28T05:36:43.524Z,0.00
2019-01-28T05:37:43.562Z,0.00
2019-01-28T05:38:43.599Z,0.00
2019-01-28T05:39:43.636Z,0.00
2019-01-28T05:40:43.672Z,0.00
2019-01-28T05:41:43.711Z,0.00
2019-01-28T05:42:43.749Z,0.00
2019-01-28T05:43:43.780Z,0.00
2019-01-28T05:44:43.817Z,0.00
2019-01-28T05:45:43.853Z,0.00
2019-01-28T05:46:43.889Z,0.00
2019-01-28T05:47:43.930Z,0.00
2019-01-28T05:48:43.968Z,0.00
2019-01-28T05:49:44.007Z,0.00
2019-01-28T05:50:44.042Z,0.00
2019-01-28T05:51:44.070Z,0.00
2019-01-28T05:52:44.122Z,0.00
2019-01-28T05:53:44.151Z,0.00
2019-01-28T05:54:44.180Z,0.00
2019-01-28T05:55:44.232Z,0.00
2019-01-28T05:56:44.256Z,0.00
2019-01-28T05:57:44.305Z,0.00
2019-01-28T05:58:44.326Z,0.00
2019-01-28T05:59:44.362Z,0.00
2019-01-28T06:00:44.402Z,0.00
2019-01-28T06:01:44.436Z,0.00
2019-01-28T06:02:44.478Z,0.00
2019-01-28T06:03:44.516Z,0.00
2019-01-28T06:04:44.547Z,0.00
2019-01-28T06:05:44.594Z,0.00
2019-01-28T06:06:44.618Z,0.00
2019-01-28T06:07:44.667Z,0.00
2019-01-28T06:08:44.693Z,0.00
2019-01-28T06:09:44.746Z,0.00
2019-01-28T06:10:44.763Z,0.00
2019-01-28T06:11:44.802Z,0.00
2019-01-28T06:12:44.837Z,0.00
2019-01-28T06:13:44.889Z,0.00
2019-01-28T06:14:44.919Z,0.00
2019-01-28T06:15:44.956Z,0.00
2019-01-28T06:16:44.989Z,0.00
2019-01-28T06:17:45.019Z,0.00
2019-01-28T06:18:45.056Z,0.00
2019-01-28T06:19:45.092Z,0.00
2019-01-28T06:20:45.131Z,0.00
2019-01-28T06:21:45.170Z,0.00
2019-01-28T06:22:45.201Z,0.00
2019-01-28T06:23:45.238Z,0.00
2019-01-28T06:24:45.275Z,0.00
2019-01-28T06:25:45.313Z,0.00
2019-01-28T06:26:45.347Z,0.00
2019-01-28T06:27:45.428Z,0.00
2019-01-28T06:28:45.425Z,0.00
2019-01-28T06:29:45.456Z,0.00
2019-01-28T06:30:45.493Z,0.00
2019-01-28T06:31:45.530Z,0.00
2019-01-28T06:32:45.567Z,0.00
2019-01-28T06:33:45.604Z,0.00
2019-01-28T06:34:45.640Z,0.00
2019-01-28T06:35:45.700Z,0.00
2019-01-28T06:36:45.715Z,0.00
2019-01-28T06:37:45.750Z,0.00
2019-01-28T06:38:45.784Z,0.00
2019-01-28T06:39:45.823Z,0.00
2019-01-28T06:40:45.857Z,0.00
2019-01-28T06:41:45.898Z,0.00
2019-01-28T06:42:45.934Z,0.00
2019-01-28T06:43:45.969Z,0.00
2019-01-28T06:44:46.007Z,0.00
2019-01-28T06:45:46.041Z,0.00
2019-01-28T06:46:46.079Z,0.00
2019-01-28T06:47:46.879Z,0.00
2019-01-28T06:48:46.149Z,0.00
2019-01-28T06:49:46.187Z,0.00
2019-01-28T06:50:46.223Z,0.00
2019-01-28T06:51:46.262Z,0.00
2019-01-28T06:52:46.446Z,0.00
2019-01-28T06:53:46.333Z,0.00
2019-01-28T06:54:46.370Z,0.00
2019-01-28T06:55:46.440Z,0.00
2019-01-28T06:56:46.446Z,0.00
2019-01-28T06:57:46.476Z,0.00
2019-01-28T06:58:46.513Z,0.00
2019-01-28T06:59:46.550Z,0.00
2019-01-28T07:00:46.589Z,0.00
2019-01-28T07:01:46.622Z,0.00
2019-01-28T07:02:46.658Z,0.00
2019-01-28T07:03:46.694Z,0.00
2019-01-28T07:04:46.738Z,0.00
2019-01-28T07:05:46.767Z,0.00
2019-01-28T07:06:46.802Z,0.00
2019-01-28T07:07:46.842Z,0.00
2019-01-28T07:08:46.877Z,5.63
2019-01-28T07:09:46.912Z,5.63
2019-01-28T07:10:46.949Z,5.63
2019-01-28T07:11:46.986Z,5.63
2019-01-28T07:12:47.023Z,5.63
2019-01-28T07:13:47.060Z,5.63
2019-01-28T07:14:47.094Z,5.63
2019-01-28T07:15:47.131Z,5.63
2019-01-28T07:16:47.168Z,5.63
2019-01-28T07:17:54.375Z,5.63
2019-01-28T07:18:47.241Z,5.63
2019-01-28T07:19:47.290Z,5.63
2019-01-28T07:20:47.313Z,5.63
2019-01-28T07:21:47.348Z,5.63
2019-01-28T07:22:47.385Z,5.63
2019-01-28T07:23:47.425Z,5.63
2019-01-28T07:24:47.460Z,5.63
2019-01-28T07:25:47.496Z,11.25
2019-01-28T07:26:47.534Z,11.25
2019-01-28T07:27:47.565Z,11.25
2019-01-28T07:28:47.610Z,11.25
2019-01-28T07:29:47.643Z,11.25
2019-01-28T07:30:47.674Z,11.25
2019-01-28T07:31:47.722Z,11.25
2019-01-28T07:32:47.748Z,11.25
2019-01-28T07:33:47.788Z,16.88
2019-01-28T07:34:47.820Z,16.88
2019-01-28T07:35:47.858Z,16.88
2019-01-28T07:36:47.891Z,16.88
2019-01-28T07:37:47.931Z,16.88
2019-01-28T07:38:47.975Z,16.88
2019-01-28T07:39:48.005Z,16.88
2019-01-28T07:40:48.048Z,16.88
2019-01-28T07:41:48.077Z,16.88
2019-01-28T07:42:48.123Z,16.88
2019-01-28T07:43:48.147Z,16.88
2019-01-28T07:44:48.182Z,16.88
2019-01-28T07:45:48.221Z,22.50
2019-01-28T07:46:48.256Z,22.50
2019-01-28T07:47:48.294Z,22.50
2019-01-28T07:48:48.330Z,16.88
2019-01-28T07:49:48.366Z,16.88
2019-01-28T07:50:48.403Z,16.88
2019-01-28T07:51:48.436Z,16.88
2019-01-28T07:52:48.474Z,16.88
2019-01-28T07:53:48.510Z,16.88
2019-01-28T07:54:48.544Z,16.88
2019-01-28T07:55:48.580Z,16.88
2019-01-28T07:56:48.617Z,16.88
2019-01-28T07:57:48.655Z,16.88
2019-01-28T07:58:48.688Z,16.88
2019-01-28T07:59:48.725Z,16.88
2019-01-28T08:00:48.759Z,16.88
2019-01-28T08:01:48.797Z,16.88
2019-01-28T08:02:48.832Z,22.50
2019-01-28T08:03:48.872Z,22.50
2019-01-28T08:04:48.905Z,22.50
2019-01-28T08:05:48.942Z,22.50
2019-01-28T08:06:48.980Z,22.50
2019-01-28T08:07:49.016Z,22.50
2019-01-28T08:08:49.051Z,22.50
2019-01-28T08:09:49.086Z,22.50
2019-01-28T08:10:49.121Z,22.50
2019-01-28T08:11:49.157Z,22.50
2019-01-28T08:12:49.196Z,22.50
2019-01-28T08:13:49.231Z,22.50
2019-01-28T08:14:49.267Z,22.50
2019-01-28T08:15:49.302Z,28.13
2019-01-28T08:16:49.385Z,28.13
2019-01-28T08:17:49.378Z,28.13
2019-01-28T08:18:49.410Z,28.13
2019-01-28T08:19:49.447Z,28.13
2019-01-28T08:20:49.482Z,33.75
2019-01-28T08:21:49.523Z,33.75
2019-01-28T08:22:49.560Z,33.75
2019-01-28T08:23:49.591Z,33.75
2019-01-28T08:24:49.629Z,39.38
2019-01-28T08:25:49.665Z,39.38
2019-01-28T08:26:49.699Z,39.38
2019-01-28T08:27:49.738Z,33.75
2019-01-28T08:28:49.772Z,39.38
2019-01-28T08:29:49.808Z,45.00
2019-01-28T08:30:49.843Z,45.00
2019-01-28T08:31:49.892Z,50.63
2019-01-28T08:32:50.028Z,50.63
2019-01-28T08:33:49.959Z,50.63
2019-01-28T08:34:49.989Z,50.63
2019-01-28T08:35:50.023Z,50.63
2019-01-28T08:36:50.067Z,50.63
2019-01-28T08:37:50.103Z,56.25
2019-01-28T08:38:50.139Z,56.25
2019-01-28T08:39:50.169Z,61.88
2019-01-28T08:40:50.262Z,61.88
2019-01-28T08:41:50.247Z,67.50
2019-01-28T08:42:50.285Z,67.50
2019-01-28T08:43:50.331Z,78.75
2019-01-28T08:44:50.354Z,84.38
2019-01-28T08:45:50.384Z,90.00
2019-01-28T08:46:50.420Z,90.00
2019-01-28T08:47:50.458Z,95.63
2019-01-28T08:48:50.498Z,95.63
2019-01-28T08:49:50.529Z,101.25
2019-01-28T08:50:50.565Z,112.50
2019-01-28T08:51:50.609Z,118.13
2019-01-28T08:52:50.639Z,118.13
2019-01-28T08:53:50.674Z,118.13
2019-01-28T08:54:50.709Z,118.13
2019-01-28T08:55:50.748Z,118.13
2019-01-28T08:56:50.783Z,112.50
2019-01-28T08:57:50.818Z,118.13
2019-01-28T08:58:50.861Z,112.50
2019-01-28T08:59:50.901Z,112.50
2019-01-28T09:00:50.927Z,106.88
2019-01-28T09:01:50.968Z,106.88
2019-01-28T09:02:50.999Z,106.88
2019-01-28T09:03:51.036Z,101.25
2019-01-28T09:04:51.076Z,101.25
2019-01-28T09:05:51.108Z,101.25
2019-01-28T09:06:51.143Z,101.25
2019-01-28T09:07:51.180Z,101.25
2019-01-28T09:08:51.217Z,95.63
2019-01-28T09:09:51.255Z,95.63
2019-01-28T09:10:51.289Z,95.63
2019-01-28T09:11:51.340Z,95.63
2019-01-28T09:12:51.423Z,101.25
2019-01-28T09:13:51.400Z,101.25
2019-01-28T09:14:51.433Z,95.63
2019-01-28T09:15:51.470Z,90.00
2019-01-28T09:16:51.506Z,84.38
2019-01-28T09:17:51.544Z,84.38
2019-01-28T09:18:51.580Z,78.75
2019-01-28T09:19:51.615Z,78.75
2019-01-28T09:20:51.653Z,78.75
2019-01-28T09:21:51.688Z,78.75
2019-01-28T09:22:51.773Z,84.38
2019-01-28T09:23:51.761Z,84.38
2019-01-28T09:24:51.797Z,90.00
2019-01-28T09:25:51.834Z,101.25
2019-01-28T09:26:51.869Z,106.88
2019-01-28T09:27:51.907Z,106.88
2019-01-28T09:28:51.954Z,112.50
2019-01-28T09:29:51.982Z,118.13
2019-01-28T09:30:52.016Z,123.75
2019-01-28T09:31:52.053Z,135.00
2019-01-28T09:32:52.090Z,146.25
2019-01-28T09:33:52.132Z,146.25
2019-01-28T09:34:52.161Z,151.88
2019-01-28T09:35:52.198Z,151.88
2019-01-28T09:36:52.234Z,151.88
2019-01-28T09:37:52.274Z,146.25
2019-01-28T09:38:52.315Z,140.63
2019-01-28T09:39:52.346Z,135.00
2019-01-28T09:40:52.387Z,135.00
2019-01-28T09:41:52.415Z,135.00
2019-01-28T09:42:52.451Z,135.00
2019-01-28T09:43:52.519Z,129.38
2019-01-28T09:44:52.533Z,123.75
2019-01-28T09:45:52.560Z,123.75
2019-01-28T09:46:52.597Z,135.00
2019-01-28T09:47:52.633Z,135.00
2019-01-28T09:48:52.670Z,140.63
2019-01-28T09:49:52.709Z,135.00
2019-01-28T09:50:52.745Z,135.00
2019-01-28T09:51:52.780Z,140.63
2019-01-28T09:52:52.819Z,146.25
2019-01-28T09:53:52.854Z,146.25
2019-01-28T09:54:52.889Z,146.25
2019-01-28T09:55:52.977Z,140.63
2019-01-28T09:56:52.972Z,146.25
2019-01-28T09:57:52.999Z,140.63
2019-01-28T09:58:53.035Z,135.00
2019-01-28T09:59:53.073Z,123.75
2019-01-28T10:00:53.113Z,118.13
2019-01-28T10:01:53.161Z,118.13
2019-01-28T10:02:53.184Z,123.75
2019-01-28T10:03:53.223Z,129.38
2019-01-28T10:04:53.258Z,135.00
2019-01-28T10:05:53.295Z,146.25
2019-01-28T10:06:53.329Z,151.88
2019-01-28T10:07:53.367Z,151.88
2019-01-28T10:08:53.403Z,157.50
2019-01-28T10:09:53.549Z,163.13
2019-01-28T10:10:53.485Z,163.13
2019-01-28T10:11:53.512Z,168.75
2019-01-28T10:12:53.557Z,163.13
2019-01-28T10:13:53.586Z,163.13
2019-01-28T10:14:53.621Z,157.50
2019-01-28T10:15:53.658Z,157.50
2019-01-28T10:16:53.698Z,151.88
2019-01-28T10:17:55.566Z,151.88
2019-01-28T10:18:53.768Z,151.88
2019-01-28T10:19:53.805Z,157.50
2019-01-28T10:20:53.841Z,163.13
2019-01-28T10:21:53.879Z,157.50
2019-01-28T10:22:53.916Z,157.50
2019-01-28T10:23:53.951Z,151.88
2019-01-28T10:24:53.993Z,140.63
2019-01-28T10:25:57.785Z,135.00
2019-01-28T10:26:54.063Z,135.00
2019-01-28T10:27:54.099Z,118.13
2019-01-28T10:28:54.134Z,123.75
2019-01-28T10:29:54.172Z,118.13
2019-01-28T10:30:54.209Z,118.13
2019-01-28T10:31:54.264Z,112.50
2019-01-28T10:32:54.284Z,106.88
2019-01-28T10:33:54.320Z,112.50
2019-01-28T10:34:54.370Z,106.88
2019-01-28T10:35:54.393Z,106.88
2019-01-28T10:36:54.431Z,118.13
2019-01-28T10:37:54.471Z,129.38
2019-01-28T10:38:54.504Z,129.38
2019-01-28T10:39:54.539Z,123.75
2019-01-28T10:40:54.588Z,129.38
2019-01-28T10:41:54.614Z,135.00
2019-01-28T10:42:54.658Z,151.88
2019-01-28T10:43:54.686Z,157.50
2019-01-28T10:44:54.725Z,174.38
2019-01-28T10:45:54.762Z,168.75
2019-01-28T10:46:54.799Z,174.38
2019-01-28T10:47:54.835Z,180.00
2019-01-28T10:48:54.872Z,185.63
2019-01-28T10:49:54.909Z,196.88
2019-01-28T10:50:54.946Z,208.13
2019-01-28T10:51:54.980Z,219.38
2019-01-28T10:52:55.018Z,225.00
2019-01-28T10:53:55.062Z,230.63
2019-01-28T10:54:55.096Z,225.00
2019-01-28T10:55:55.130Z,219.38
2019-01-28T10:56:55.174Z,225.00
2019-01-28T10:57:55.204Z,225.00
2019-01-28T10:58:55.238Z,225.00
2019-01-28T10:59:55.276Z,247.50
2019-01-28T11:00:55.318Z,258.75
2019-01-28T11:01:55.351Z,292.50
2019-01-28T11:02:55.384Z,315.00
2019-01-28T11:03:55.432Z,360.00
2019-01-28T11:04:55.459Z,382.50
2019-01-28T11:05:55.500Z,348.75
2019-01-28T11:06:55.539Z,331.88
2019-01-28T11:07:55.588Z,326.25
2019-01-28T11:08:55.616Z,270.00
2019-01-28T11:09:55.656Z,247.50
2019-01-28T11:10:55.730Z,202.50
2019-01-28T11:11:55.748Z,180.00
2019-01-28T11:12:55.883Z,202.50
2019-01-28T11:13:55.893Z,191.25
2019-01-28T11:14:55.836Z,163.13
2019-01-28T11:15:55.933Z,140.63
2019-01-28T11:16:56.020Z,123.75
2019-01-28T11:17:55.982Z,118.13
2019-01-28T11:18:57.806Z,129.38
2019-01-28T11:19:56.038Z,129.38
2019-01-28T11:20:56.102Z,157.50
2019-01-28T11:21:56.130Z,163.13
2019-01-28T11:22:56.135Z,196.88
2019-01-28T11:23:56.207Z,174.38
2019-01-28T11:24:56.212Z,140.63
2019-01-28T11:25:56.317Z,129.38
2019-01-28T11:26:56.363Z,123.75
2019-01-28T11:27:56.385Z,123.75
2019-01-28T11:28:56.380Z,106.88
2019-01-28T11:29:56.534Z,95.63
2019-01-28T11:30:56.587Z,90.00
2019-01-28T11:31:56.510Z,101.25
2019-01-28T11:32:56.571Z,101.25
2019-01-28T11:33:56.614Z,106.88
2019-01-28T11:34:56.612Z,112.50
2019-01-28T11:36:04.713Z,123.75
2019-01-28T11:36:56.685Z,118.13
2019-01-28T11:37:56.739Z,118.13
2019-01-28T11:38:56.844Z,112.50
2019-01-28T11:39:56.788Z,101.25
2019-01-28T11:40:56.830Z,101.25
2019-01-28T11:41:56.933Z,101.25
2019-01-28T11:42:56.985Z,84.38
2019-01-28T11:43:57.044Z,84.38
2019-01-28T11:44:56.958Z,84.38
2019-01-28T11:45:57.168Z,84.38
2019-01-28T11:46:57.033Z,95.63
2019-01-28T11:47:57.083Z,101.25
2019-01-28T11:48:57.147Z,101.25
2019-01-28T11:49:57.267Z,90.00
2019-01-28T11:50:57.182Z,84.38
2019-01-28T11:51:57.218Z,95.63
2019-01-28T11:52:57.256Z,95.63
2019-01-28T11:53:57.444Z,95.63
2019-01-28T11:54:57.330Z,101.25
2019-01-28T11:55:57.366Z,95.63
2019-01-28T11:56:57.405Z,90.00
2019-01-28T11:57:57.455Z,90.00
2019-01-28T11:58:57.488Z,90.00
2019-01-28T11:59:57.516Z,90.00
2019-01-28T12:00:57.555Z,95.63
2019-01-28T12:01:57.644Z,101.25
2019-01-28T12:02:57.626Z,101.25
2019-01-28T12:03:57.665Z,106.88
2019-01-28T12:04:57.703Z,106.88
2019-01-28T12:05:57.746Z,95.63
2019-01-28T12:06:57.784Z,90.00
2019-01-28T12:07:57.811Z,78.75
2019-01-28T12:08:57.857Z,78.75
2019-01-28T12:09:57.892Z,84.38
2019-01-28T12:10:57.926Z,84.38
2019-01-28T12:11:57.962Z,84.38
2019-01-28T12:12:58.004Z,84.38
2019-01-28T12:13:58.038Z,78.75
2019-01-28T12:14:58.076Z,78.75
2019-01-28T12:15:58.118Z,73.13
2019-01-28T12:16:58.148Z,73.13
2019-01-28T12:17:58.183Z,73.13
2019-01-28T12:18:58.222Z,73.13
2019-01-28T12:19:58.257Z,67.50
2019-01-28T12:20:58.295Z,67.50
2019-01-28T12:21:58.340Z,67.50
2019-01-28T12:22:58.504Z,67.50
2019-01-28T12:23:58.405Z,61.88
2019-01-28T12:24:58.445Z,61.88
2019-01-28T12:25:58.479Z,61.88
2019-01-28T12:26:58.524Z,61.88
2019-01-28T12:27:58.553Z,61.88
2019-01-28T12:28:58.590Z,61.88
2019-01-28T12:29:58.628Z,67.50
2019-01-28T12:30:58.665Z,73.13
2019-01-28T12:31:58.700Z,61.88
2019-01-28T12:32:58.737Z,56.25
2019-01-28T12:33:58.779Z,50.63
2019-01-28T12:34:58.813Z,56.25
2019-01-28T12:35:58.849Z,56.25
2019-01-28T12:36:58.894Z,56.25
2019-01-28T12:37:58.930Z,56.25
2019-01-28T12:38:58.959Z,56.25
2019-01-28T12:39:58.995Z,56.25
2019-01-28T12:40:59.032Z,50.63
2019-01-28T12:41:59.068Z,61.88
2019-01-28T12:42:59.107Z,67.50
2019-01-28T12:43:59.143Z,67.50
2019-01-28T12:44:59.179Z,61.88
2019-01-28T12:45:59.216Z,61.88
2019-01-28T12:46:59.254Z,61.88
2019-01-28T12:47:59.290Z,61.88
2019-01-28T12:48:59.324Z,56.25
2019-01-28T12:49:59.363Z,56.25
2019-01-28T12:50:59.400Z,56.25
2019-01-28T12:51:59.438Z,56.25
2019-01-28T12:52:59.496Z,61.88
2019-01-28T12:53:59.509Z,67.50
2019-01-28T12:54:59.545Z,61.88
2019-01-28T12:55:59.589Z,61.88
2019-01-28T12:56:59.629Z,61.88
2019-01-28T12:57:59.659Z,67.50
2019-01-28T12:58:59.694Z,61.88
2019-01-28T12:59:59.726Z,50.63
2019-01-28T13:00:59.765Z,50.63
2019-01-28T13:01:59.801Z,56.25